Time;durP1;ratioP1;P1;durP2;ratioP2;P2;SDS_P1;SDS_P2;PMS_P1;PMS_P2;Temp;Humidity;BMP_temperature;BMP_pressure;BME280_temperature;BME280_humidity;BME280_pressure;Samples;Min_cycle;Max_cycle;Signal;HPM_P1;HPM_P2
2022/04/08 00:00:57;;;;;;;1.85;0.60;;;22.90;40.50;;;;;;5025261;28;20040;-42
2022/04/08 00:03:24;;;;;;;2.15;0.90;;;22.90;40.60;;;;;;5024384;28;20152;-43
2022/04/08 00:05:51;;;;;;;2.42;0.85;;;22.90;40.60;;;;;;5022772;28;20068;-43
2022/04/08 00:08:17;;;;;;;1.92;0.80;;;22.90;40.50;;;;;;5024987;28;20338;-42
2022/04/08 00:10:43;;;;;;;2.10;0.82;;;22.90;40.50;;;;;;5024023;28;20503;-42
2022/04/08 00:13:09;;;;;;;1.27;0.50;;;22.90;40.60;;;;;;5023764;28;20025;-42
2022/04/08 00:15:36;;;;;;;2.05;0.70;;;22.90;40.50;;;;;;5024802;28;20746;-42
2022/04/08 00:18:01;;;;;;;1.52;0.60;;;22.80;40.40;;;;;;5025631;28;20390;-42
2022/04/08 00:20:27;;;;;;;1.77;0.60;;;22.90;40.50;;;;;;5025335;28;20030;-42
2022/04/08 00:22:53;;;;;;;1.63;0.82;;;22.80;40.50;;;;;;5024709;28;20026;-42
2022/04/08 00:25:19;;;;;;;1.92;0.60;;;22.90;40.50;;;;;;5025455;28;20060;-42
2022/04/08 00:27:45;;;;;;;1.80;0.68;;;22.80;40.30;;;;;;5024358;28;20034;-42
2022/04/08 00:30:11;;;;;;;1.75;0.75;;;22.80;40.40;;;;;;5024303;28;20100;-42
2022/04/08 00:32:36;;;;;;;1.45;0.52;;;22.80;40.40;;;;;;5024367;28;20018;-42
2022/04/08 00:35:02;;;;;;;1.70;0.70;;;22.80;40.40;;;;;;5024689;28;20389;-43
2022/04/08 00:37:28;;;;;;;1.48;0.65;;;22.80;40.40;;;;;;5023564;28;20481;-42
2022/04/08 00:39:54;;;;;;;2.20;0.70;;;22.80;40.50;;;;;;5024582;28;20037;-42
2022/04/08 00:42:20;;;;;;;1.98;0.68;;;22.80;40.40;;;;;;5024289;28;20038;-43
2022/04/08 00:44:45;;;;;;;2.97;0.93;;;22.80;40.50;;;;;;5024316;28;20036;-42
2022/04/08 00:47:11;;;;;;;1.90;0.63;;;22.80;40.50;;;;;;5023332;28;20036;-43
2022/04/08 00:49:39;;;;;;;1.75;0.50;;;22.80;40.40;;;;;;5023652;28;20048;-43
2022/04/08 00:52:05;;;;;;;1.50;0.50;;;22.80;41.10;;;;;;5024995;28;20436;-42
2022/04/08 00:54:31;;;;;;;1.80;0.65;;;22.80;41.10;;;;;;5024957;28;20149;-42
2022/04/08 00:56:58;;;;;;;1.20;0.60;;;22.80;40.40;;;;;;5024013;28;20032;-42
2022/04/08 00:59:27;;;;;;;1.55;0.57;;;22.80;40.40;;;;;;5024463;28;20037;-42
2022/04/08 01:01:53;;;;;;;2.47;0.60;;;22.70;40.40;;;;;;5023637;28;20029;-43
2022/04/08 01:04:21;;;;;;;1.50;0.60;;;22.80;40.40;;;;;;5024225;28;20064;-42
2022/04/08 01:06:47;;;;;;;1.52;0.55;;;22.80;40.40;;;;;;5023375;28;20021;-42
2022/04/08 01:09:13;;;;;;;1.50;0.43;;;22.80;40.40;;;;;;5024481;28;20075;-42
2022/04/08 01:11:40;;;;;;;1.20;0.50;;;22.70;40.40;;;;;;5023901;28;20689;-42
2022/04/08 01:14:11;;;;;;;3.60;0.75;;;22.80;40.40;;;;;;5023478;28;20040;-43
2022/04/08 01:16:37;;;;;;;1.25;0.57;;;22.80;40.40;;;;;;5024454;28;20033;-43
2022/04/08 01:19:03;;;;;;;1.48;0.82;;;22.70;40.40;;;;;;5024196;28;20030;-42
2022/04/08 01:21:29;;;;;;;2.42;0.63;;;22.80;40.40;;;;;;5024026;28;20112;-42
2022/04/08 01:23:56;;;;;;;2.45;0.60;;;22.70;40.40;;;;;;5024269;28;20556;-42
2022/04/08 01:26:22;;;;;;;1.70;0.52;;;22.70;40.40;;;;;;5023875;28;20053;-42
2022/04/08 01:28:47;;;;;;;2.28;0.73;;;22.80;40.40;;;;;;5024597;28;20080;-42
2022/04/08 01:31:15;;;;;;;1.92;0.70;;;22.80;40.40;;;;;;5024175;28;20128;-42
2022/04/08 01:33:41;;;;;;;1.63;0.63;;;22.70;40.60;;;;;;5023927;28;20041;-42
2022/04/08 01:36:07;;;;;;;1.63;0.57;;;22.80;40.30;;;;;;5024233;28;20029;-42
2022/04/08 01:38:33;;;;;;;1.23;0.50;;;22.80;40.30;;;;;;5024257;28;20032;-42
2022/04/08 01:40:58;;;;;;;2.03;0.57;;;22.70;40.30;;;;;;5024492;28;20037;-42
2022/04/08 01:43:24;;;;;;;1.25;0.30;;;22.70;40.30;;;;;;5027337;28;20553;-42
2022/04/08 01:45:50;;;;;;;1.48;0.70;;;22.70;40.30;;;;;;5027864;28;20799;-42
2022/04/08 01:48:16;;;;;;;1.25;0.50;;;22.70;40.20;;;;;;5028407;28;20589;-42
2022/04/08 01:50:41;;;;;;;2.00;0.70;;;22.70;40.40;;;;;;5028002;28;20033;-42
2022/04/08 01:53:07;;;;;;;2.05;0.50;;;22.70;40.30;;;;;;5027782;28;20034;-42
2022/04/08 01:55:33;;;;;;;1.15;0.47;;;22.70;40.20;;;;;;5027401;28;20025;-42
2022/04/08 01:57:59;;;;;;;2.25;0.52;;;22.70;40.20;;;;;;5027223;28;20030;-42
2022/04/08 02:00:24;;;;;;;1.40;0.50;;;22.70;40.20;;;;;;5026855;28;20437;-42
2022/04/08 02:02:50;;;;;;;2.25;0.68;;;22.70;40.30;;;;;;5025958;28;20029;-42
2022/04/08 02:05:16;;;;;;;1.00;0.40;;;22.70;40.30;;;;;;5026572;28;20029;-42
2022/04/08 02:07:42;;;;;;;1.02;0.47;;;22.70;40.30;;;;;;5028094;28;20037;-42
2022/04/08 02:10:08;;;;;;;1.30;0.50;;;22.70;40.30;;;;;;5027927;28;20029;-42
2022/04/08 02:12:33;;;;;;;1.42;0.45;;;22.70;40.30;;;;;;5027205;28;20036;-42
2022/04/08 02:14:59;;;;;;;1.42;0.40;;;22.70;40.30;;;;;;5026793;28;20017;-42
2022/04/08 02:17:25;;;;;;;1.85;0.43;;;22.70;40.30;;;;;;5026091;28;20021;-42
2022/04/08 02:19:54;;;;;;;1.27;0.32;;;22.70;40.30;;;;;;5027831;28;20073;-42
2022/04/08 02:22:21;;;;;;;1.15;0.32;;;22.60;40.10;;;;;;5025934;28;20052;-43
2022/04/08 02:24:49;;;;;;;1.27;0.60;;;22.70;40.20;;;;;;5027738;28;20034;-42
2022/04/08 02:27:14;;;;;;;1.67;0.40;;;22.60;40.10;;;;;;5027775;28;20036;-42
2022/04/08 02:29:40;;;;;;;1.48;0.40;;;22.70;40.20;;;;;;5025802;28;20037;-42
2022/04/08 02:32:06;;;;;;;1.33;0.40;;;22.60;40.00;;;;;;5027368;28;20235;-42
2022/04/08 02:34:36;;;;;;;2.03;0.60;;;22.60;40.20;;;;;;5027357;28;20683;-42
2022/04/08 02:37:03;;;;;;;1.08;0.45;;;22.60;40.10;;;;;;5027442;28;20576;-41
2022/04/08 02:39:29;;;;;;;1.75;0.60;;;22.60;40.00;;;;;;5026262;28;20183;-42
2022/04/08 02:41:56;;;;;;;0.90;0.32;;;22.60;40.10;;;;;;5027295;28;20129;-42
2022/04/08 02:44:22;;;;;;;1.20;0.40;;;22.60;40.10;;;;;;5026739;28;20038;-42
2022/04/08 02:46:47;;;;;;;1.13;0.47;;;22.60;40.10;;;;;;5026957;28;20018;-42
2022/04/08 02:49:13;;;;;;;0.90;0.40;;;22.60;40.10;;;;;;5027184;28;20111;-41
2022/04/08 02:51:39;;;;;;;1.27;0.40;;;22.60;40.10;;;;;;5026896;28;20056;-43
2022/04/08 02:54:04;;;;;;;0.85;0.30;;;22.60;40.10;;;;;;5025637;28;20111;-42
2022/04/08 02:56:30;;;;;;;0.73;0.30;;;22.60;40.10;;;;;;5026610;28;20029;-42
2022/04/08 02:58:57;;;;;;;1.83;0.40;;;22.60;40.10;;;;;;5025803;28;20026;-42
2022/04/08 03:01:24;;;;;;;1.00;0.40;;;22.60;40.10;;;;;;5026226;28;20493;-42
2022/04/08 03:03:49;;;;;;;1.08;0.30;;;22.60;40.10;;;;;;5026477;28;20041;-42
2022/04/08 03:06:15;;;;;;;1.10;0.40;;;22.60;40.00;;;;;;5026353;28;20037;-42
2022/04/08 03:08:41;;;;;;;0.95;0.30;;;22.60;40.00;;;;;;5026311;28;20063;-42
2022/04/08 03:11:06;;;;;;;1.05;0.40;;;22.60;40.00;;;;;;5026652;28;20033;-43
2022/04/08 03:13:33;;;;;;;0.73;0.28;;;22.60;40.00;;;;;;5026098;28;20021;-42
2022/04/08 03:15:59;;;;;;;1.08;0.45;;;22.60;40.80;;;;;;5026185;28;20036;-42
2022/04/08 03:18:25;;;;;;;1.08;0.30;;;22.60;40.00;;;;;;5025834;28;20026;-42
2022/04/08 03:20:51;;;;;;;0.95;0.40;;;22.60;40.00;;;;;;5026805;28;20041;-41
2022/04/08 03:23:17;;;;;;;0.75;0.35;;;22.60;40.00;;;;;;5026263;28;20124;-42
2022/04/08 03:25:42;;;;;;;1.20;0.43;;;22.60;40.00;;;;;;5026115;28;20041;-42
2022/04/08 03:28:09;;;;;;;2.00;0.45;;;22.60;40.00;;;;;;5026315;28;20484;-43
2022/04/08 03:30:35;;;;;;;1.83;0.50;;;22.60;40.00;;;;;;5025991;28;20087;-42
2022/04/08 03:33:01;;;;;;;2.15;0.50;;;22.60;40.00;;;;;;5026139;28;20489;-41
2022/04/08 03:35:26;;;;;;;0.70;0.20;;;22.60;40.00;;;;;;5026085;28;20025;-42
2022/04/08 03:37:52;;;;;;;1.30;0.60;;;22.50;40.00;;;;;;5026075;28;20025;-42
2022/04/08 03:40:18;;;;;;;0.80;0.30;;;22.60;40.00;;;;;;5026122;28;20064;-42
2022/04/08 03:42:44;;;;;;;0.65;0.30;;;22.50;40.00;;;;;;5025878;28;20037;-43
2022/04/08 03:45:10;;;;;;;2.40;0.60;;;22.60;40.00;;;;;;5025858;28;20045;-42
2022/04/08 03:47:35;;;;;;;0.50;0.20;;;22.60;40.00;;;;;;5026138;28;20032;-41
2022/04/08 03:50:01;;;;;;;0.85;0.35;;;22.50;39.90;;;;;;5025714;28;20037;-43
2022/04/08 03:52:32;;;;;;;0.57;0.20;;;22.60;39.90;;;;;;5025768;28;20056;-42
2022/04/08 03:54:59;;;;;;;1.40;0.40;;;22.50;39.90;;;;;;5025304;28;20032;-42
2022/04/08 03:57:26;;;;;;;1.25;0.35;;;22.60;39.90;;;;;;5025257;28;20021;-42
2022/04/08 03:59:52;;;;;;;1.10;0.20;;;22.50;39.90;;;;;;5025259;28;20029;-42
2022/04/08 04:02:18;;;;;;;0.90;0.30;;;22.50;40.00;;;;;;5025943;28;20037;-42
2022/04/08 04:04:44;;;;;;;1.13;0.40;;;22.50;39.90;;;;;;5023673;28;20076;-42
2022/04/08 04:07:09;;;;;;;1.67;0.40;;;22.50;39.90;;;;;;5025568;28;20038;-43
2022/04/08 04:09:35;;;;;;;1.00;0.30;;;22.50;39.90;;;;;;5024422;28;20037;-42
2022/04/08 04:12:01;;;;;;;1.00;0.30;;;22.50;39.80;;;;;;5024990;28;20029;-42
2022/04/08 04:14:26;;;;;;;1.92;0.60;;;22.50;39.90;;;;;;5024913;28;20018;-42
2022/04/08 04:16:52;;;;;;;1.92;0.30;;;22.50;40.00;;;;;;5025590;28;20651;-42
2022/04/08 04:19:18;;;;;;;1.95;0.35;;;22.50;40.10;;;;;;5025061;28;20029;-42
2022/04/08 04:21:45;;;;;;;1.00;0.30;;;22.50;40.10;;;;;;5025031;28;20037;-42
2022/04/08 04:24:10;;;;;;;0.45;0.20;;;22.50;40.20;;;;;;5025817;28;20037;-42
2022/04/08 04:26:36;;;;;;;1.20;0.30;;;22.50;40.20;;;;;;5025528;28;20032;-42
2022/04/08 04:29:02;;;;;;;1.08;0.32;;;22.60;40.20;;;;;;5024358;28;20150;-42
2022/04/08 04:31:28;;;;;;;1.38;0.32;;;22.60;40.20;;;;;;5025264;28;20119;-43
2022/04/08 04:33:53;;;;;;;1.20;0.30;;;22.60;40.10;;;;;;5024900;28;20798;-42
2022/04/08 04:36:19;;;;;;;1.42;0.30;;;22.60;40.10;;;;;;5025003;28;20589;-42
2022/04/08 04:38:45;;;;;;;1.38;0.22;;;22.60;40.00;;;;;;5024633;28;20581;-42
2022/04/08 04:41:10;;;;;;;1.13;0.40;;;22.70;40.10;;;;;;5024534;28;20117;-42
2022/04/08 04:43:36;;;;;;;1.55;0.47;;;22.70;40.10;;;;;;5023130;28;20030;-42
2022/04/08 04:46:05;;;;;;;1.17;0.38;;;22.80;40.00;;;;;;5024879;28;20041;-42
2022/04/08 04:48:31;;;;;;;1.05;0.40;;;22.70;39.90;;;;;;5024020;28;20044;-42
2022/04/08 04:50:56;;;;;;;1.75;0.43;;;22.80;39.80;;;;;;5024825;28;20021;-42
2022/04/08 04:53:23;;;;;;;0.90;0.30;;;22.80;39.70;;;;;;5023795;28;20025;-42
2022/04/08 04:55:49;;;;;;;1.38;0.17;;;22.90;39.90;;;;;;5023260;28;20180;-42
2022/04/08 04:58:15;;;;;;;1.52;0.30;;;22.90;39.70;;;;;;5024213;28;20108;-43
2022/04/08 05:00:40;;;;;;;1.45;0.40;;;22.90;39.70;;;;;;5023908;28;20036;-42
2022/04/08 05:03:08;;;;;;;1.38;0.50;;;22.90;39.70;;;;;;5023068;28;20575;-43
2022/04/08 05:05:37;;;;;;;2.50;0.60;;;23.00;39.60;;;;;;5022191;28;20424;-42
2022/04/08 05:08:04;;;;;;;1.50;0.50;;;23.00;39.60;;;;;;5023986;28;20108;-42
2022/04/08 05:10:31;;;;;;;1.20;0.40;;;23.00;39.60;;;;;;5023968;28;20029;-43
2022/04/08 05:12:59;;;;;;;0.80;0.20;;;23.00;39.60;;;;;;5021505;28;20029;-42
2022/04/08 05:15:26;;;;;;;1.33;0.32;;;23.00;40.20;;;;;;5022876;28;20030;-42
2022/04/08 05:17:51;;;;;;;1.67;0.30;;;23.00;39.50;;;;;;5022208;28;20103;-43
2022/04/08 05:20:17;;;;;;;1.45;0.30;;;23.00;39.50;;;;;;5021772;28;20025;-42
2022/04/08 05:22:43;;;;;;;1.63;0.30;;;23.10;39.60;;;;;;5021510;28;20021;-43
2022/04/08 05:25:10;;;;;;;0.82;0.20;;;23.00;39.50;;;;;;5021333;28;20032;-42
2022/04/08 05:27:43;;;;;;;1.10;0.30;;;23.10;39.60;;;;;;5014396;28;20037;-42
2022/04/08 05:30:12;;;;;;;1.48;0.40;;;23.10;40.00;;;;;;5020650;28;20032;-42
2022/04/08 05:32:39;;;;;;;1.17;0.28;;;23.10;40.00;;;;;;5025409;28;20060;-42
2022/04/08 05:35:05;;;;;;;1.25;0.40;;;23.10;40.20;;;;;;5022483;28;20344;-43
2022/04/08 05:37:31;;;;;;;1.08;0.40;;;23.10;40.20;;;;;;5022909;28;20101;-44
2022/04/08 05:39:57;;;;;;;2.00;0.50;;;23.10;40.30;;;;;;5021438;28;20033;-43
2022/04/08 05:42:23;;;;;;;0.90;0.30;;;23.20;40.30;;;;;;5022003;28;20111;-43
2022/04/08 05:44:48;;;;;;;0.65;0.30;;;23.20;40.20;;;;;;5020616;28;20069;-42
2022/04/08 05:47:14;;;;;;;0.95;0.30;;;23.20;40.10;;;;;;5018667;28;20040;-43
2022/04/08 05:49:40;;;;;;;1.95;0.22;;;23.20;39.80;;;;;;5018867;28;20141;-42
2022/04/08 05:52:06;;;;;;;1.20;0.38;;;23.20;39.70;;;;;;5022552;28;20104;-42
2022/04/08 05:54:31;;;;;;;1.08;0.20;;;23.20;39.70;;;;;;5022385;28;20481;-43
2022/04/08 05:57:01;;;;;;;0.90;0.28;;;23.20;39.60;;;;;;5023377;28;20064;-43
2022/04/08 05:59:30;;;;;;;1.70;0.50;;;23.20;39.50;;;;;;5022278;28;20025;-42
2022/04/08 06:01:56;;;;;;;0.93;0.40;;;23.20;39.40;;;;;;5023304;28;20029;-43
2022/04/08 06:04:21;;;;;;;1.17;0.43;;;23.20;39.30;;;;;;5023159;28;20108;-42
2022/04/08 06:06:47;;;;;;;1.10;0.40;;;23.20;39.30;;;;;;5023030;28;20045;-43
2022/04/08 06:09:13;;;;;;;0.85;0.40;;;23.20;39.30;;;;;;5022584;28;20029;-42
2022/04/08 06:11:41;;;;;;;1.65;0.50;;;23.20;39.30;;;;;;5022634;28;20029;-43
2022/04/08 06:14:07;;;;;;;0.90;0.30;;;23.20;39.30;;;;;;5022830;28;20668;-41
2022/04/08 06:16:33;;;;;;;1.35;0.32;;;23.20;39.30;;;;;;5022811;28;20232;-42
2022/04/08 06:18:59;;;;;;;0.47;0.20;;;23.20;39.30;;;;;;5022810;28;20078;-42
2022/04/08 06:21:24;;;;;;;2.28;0.35;;;23.20;39.90;;;;;;5011182;28;20104;-42
2022/04/08 06:23:51;;;;;;;1.35;0.30;;;23.20;39.90;;;;;;5007394;28;20033;-42
2022/04/08 06:26:17;;;;;;;1.67;0.50;;;23.20;39.30;;;;;;5016924;28;20394;-42
2022/04/08 06:28:42;;;;;;;1.38;0.30;;;23.20;39.30;;;;;;5018957;28;20076;-42
2022/04/08 06:31:10;;;;;;;1.85;0.45;;;23.20;39.30;;;;;;5019805;28;20632;-42
2022/04/08 06:33:35;;;;;;;1.73;0.40;;;23.20;39.30;;;;;;5022685;28;20025;-44
2022/04/08 06:36:01;;;;;;;1.42;0.40;;;23.20;39.70;;;;;;5026105;28;20017;-43
2022/04/08 06:38:27;;;;;;;1.00;0.30;;;23.20;39.80;;;;;;5024216;28;20013;-43
2022/04/08 06:40:53;;;;;;;1.60;0.50;;;23.20;40.20;;;;;;5024015;28;20060;-42
2022/04/08 06:43:18;;;;;;;1.63;0.43;;;23.20;41.10;;;;;;5025736;28;20065;-43
2022/04/08 06:45:44;;;;;;;2.83;0.50;;;23.20;42.30;;;;;;5026366;28;20475;-44
2022/04/08 06:48:10;;;;;;;3.30;0.60;;;23.20;41.80;;;;;;5026445;28;20981;-44
2022/04/08 06:50:35;;;;;;;2.22;0.63;;;23.20;41.90;;;;;;5022328;28;20026;-43
2022/04/08 06:53:02;;;;;;;2.10;0.80;;;23.20;42.20;;;;;;5006553;28;20018;-43
2022/04/08 06:55:29;;;;;;;3.03;0.57;;;23.20;42.60;;;;;;5006523;28;20030;-42
2022/04/08 06:57:58;;;;;;;1.85;0.75;;;23.20;42.90;;;;;;5009617;28;20026;-44
2022/04/08 07:00:24;;;;;;;2.60;0.60;;;23.30;43.30;;;;;;5017663;28;20039;-43
2022/04/08 07:02:49;;;;;;;1.70;0.50;;;23.30;43.20;;;;;;5024992;28;20104;-44
2022/04/08 07:05:15;;;;;;;3.65;0.80;;;23.30;43.20;;;;;;5026133;28;20091;-43
2022/04/08 07:07:41;;;;;;;1.98;0.40;;;23.30;43.20;;;;;;5026113;28;20037;-43
2022/04/08 07:10:08;;;;;;;2.70;0.70;;;23.30;43.00;;;;;;5024361;28;20033;-43
2022/04/08 07:12:34;;;;;;;2.05;0.63;;;23.30;43.10;;;;;;5025318;28;20143;-43
2022/04/08 07:15:00;;;;;;;2.60;0.57;;;23.30;43.00;;;;;;5025879;28;20025;-43
2022/04/08 07:17:33;;;;;;;2.38;0.65;;;23.30;42.70;;;;;;5026155;28;20037;-43
2022/04/08 07:19:59;;;;;;;1.80;0.45;;;23.30;42.60;;;;;;5025693;28;20473;-42
2022/04/08 07:22:25;;;;;;;1.10;0.38;;;23.40;42.50;;;;;;5025199;28;20025;-43
2022/04/08 07:24:52;;;;;;;4.72;0.70;;;23.40;42.50;;;;;;5025661;28;20108;-46
2022/04/08 07:27:19;;;;;;;3.08;0.68;;;23.40;42.90;;;;;;5020829;28;20029;-45
2022/04/08 07:29:45;;;;;;;1.95;0.65;;;23.40;43.00;;;;;;5024512;28;20047;-42
2022/04/08 07:32:11;;;;;;;2.17;0.35;;;23.30;42.90;;;;;;5023706;28;20028;-41
2022/04/08 07:34:37;;;;;;;2.58;0.60;;;23.40;42.70;;;;;;5023753;28;20496;-44
2022/04/08 07:37:04;;;;;;;2.35;0.60;;;23.40;42.60;;;;;;5025032;28;20100;-46
2022/04/08 07:39:30;;;;;;;2.17;0.68;;;23.40;42.70;;;;;;5020490;28;20083;-47
2022/04/08 07:41:56;;;;;;;2.20;0.50;;;23.40;42.50;;;;;;5025112;28;20024;-44
2022/04/08 07:44:22;;;;;;;1.33;0.40;;;23.40;42.40;;;;;;5024887;28;20625;-44
2022/04/08 07:46:48;;;;;;;2.33;0.50;;;23.40;42.40;;;;;;5024405;28;20044;-43
2022/04/08 07:49:14;;;;;;;4.15;0.45;;;23.40;42.20;;;;;;5024007;28;20032;-43
2022/04/08 07:51:41;;;;;;;2.42;0.30;;;23.40;41.90;;;;;;5022704;28;20077;-45
2022/04/08 07:54:08;;;;;;;2.78;0.57;;;23.40;41.70;;;;;;5022746;28;20645;-45
2022/04/08 07:56:35;;;;;;;0.73;0.30;;;23.50;41.70;;;;;;5024531;28;20029;-47
2022/04/08 07:59:02;;;;;;;1.70;0.60;;;23.40;41.40;;;;;;5021948;28;20026;-46
2022/04/08 08:01:28;;;;;;;2.53;0.55;;;23.50;41.30;;;;;;5023291;28;20025;-44
2022/04/08 08:03:54;;;;;;;2.25;0.40;;;23.40;41.10;;;;;;5022340;28;20056;-44
2022/04/08 08:06:20;;;;;;;2.72;0.40;;;23.40;41.10;;;;;;5023920;28;20053;-44
2022/04/08 08:08:46;;;;;;;2.25;0.50;;;23.50;41.50;;;;;;5022645;28;21234;-46
2022/04/08 08:11:13;;;;;;;2.35;0.77;;;23.40;41.50;;;;;;5022427;28;20053;-46
2022/04/08 08:13:39;;;;;;;2.00;0.40;;;23.40;40.90;;;;;;5022341;28;20095;-44
2022/04/08 08:16:09;;;;;;;3.28;0.60;;;23.40;41.00;;;;;;5024732;28;20021;-43
2022/04/08 08:18:35;;;;;;;1.55;0.50;;;23.40;40.90;;;;;;5024639;28;20485;-43
2022/04/08 08:21:01;;;;;;;2.22;0.50;;;23.40;40.80;;;;;;5025170;28;21058;-43
2022/04/08 08:23:27;;;;;;;1.48;0.55;;;23.40;40.60;;;;;;5020654;28;20699;-44
2022/04/08 08:25:55;;;;;;;0.95;0.30;;;23.40;40.70;;;;;;5024428;28;20082;-43
2022/04/08 08:28:22;;;;;;;1.17;0.40;;;23.40;40.70;;;;;;5024438;28;20029;-42
2022/04/08 08:30:47;;;;;;;2.45;0.80;;;23.40;40.60;;;;;;5023319;28;20084;-42
2022/04/08 08:33:13;;;;;;;2.92;0.47;;;23.30;40.40;;;;;;5015070;28;20026;-42
2022/04/08 08:35:39;;;;;;;1.40;0.47;;;23.40;40.40;;;;;;5019734;28;20021;-42
2022/04/08 08:38:05;;;;;;;2.38;0.70;;;23.40;40.30;;;;;;5022142;28;20021;-43
2022/04/08 08:40:32;;;;;;;1.20;0.32;;;23.40;40.20;;;;;;5022156;28;20400;-42
2022/04/08 08:43:00;;;;;;;2.72;0.50;;;23.40;40.10;;;;;;5021741;28;20033;-42
2022/04/08 08:45:32;;;;;;;1.83;0.45;;;23.40;40.00;;;;;;5019745;28;20029;-42
2022/04/08 08:48:02;;;;;;;1.23;0.43;;;23.40;40.00;;;;;;5023637;28;20086;-42
2022/04/08 08:50:29;;;;;;;1.85;0.47;;;23.30;40.00;;;;;;5024311;28;20561;-42
2022/04/08 08:52:55;;;;;;;1.90;0.52;;;23.30;40.00;;;;;;5023482;28;20021;-42
2022/04/08 08:55:21;;;;;;;1.63;0.50;;;23.30;39.90;;;;;;5024330;28;20037;-42
2022/04/08 08:57:48;;;;;;;1.33;0.50;;;23.30;39.90;;;;;;5024195;28;20033;-42
2022/04/08 09:00:15;;;;;;;1.70;0.50;;;23.30;39.80;;;;;;5024079;28;20232;-42
2022/04/08 09:02:45;;;;;;;1.60;0.40;;;23.30;39.90;;;;;;5023251;28;20030;-42
2022/04/08 09:05:11;;;;;;;1.23;0.28;;;23.40;39.80;;;;;;5024357;28;20044;-43
2022/04/08 09:07:37;;;;;;;1.17;0.38;;;23.30;39.70;;;;;;5024257;28;20445;-42
2022/04/08 09:10:04;;;;;;;1.25;0.38;;;23.30;39.70;;;;;;5021219;28;20029;-42
2022/04/08 09:12:30;;;;;;;1.98;0.40;;;23.30;39.50;;;;;;5022288;28;20559;-42
2022/04/08 09:14:58;;;;;;;0.63;0.30;;;23.30;39.70;;;;;;5020285;28;20045;-42
2022/04/08 09:17:26;;;;;;;1.13;0.40;;;23.30;39.30;;;;;;5023792;28;20090;-42
2022/04/08 09:19:53;;;;;;;1.20;0.40;;;23.20;38.80;;;;;;5019077;28;20030;-43
2022/04/08 09:22:20;;;;;;;2.00;0.60;;;23.20;38.50;;;;;;5003980;28;20022;-40
2022/04/08 09:24:46;;;;;;;2.58;0.47;;;23.20;38.20;;;;;;5014436;28;20038;-40
2022/04/08 09:27:13;;;;;;;2.85;0.80;;;23.20;38.30;;;;;;5019508;28;20032;-40
2022/04/08 09:29:43;;;;;;;2.92;0.80;;;23.10;37.50;;;;;;5016322;28;20017;-40
2022/04/08 09:32:13;;;;;;;2.25;0.95;;;23.20;37.90;;;;;;5021695;28;20025;-40
2022/04/08 09:34:41;;;;;;;2.90;0.70;;;23.10;37.60;;;;;;5015774;28;20052;-40
2022/04/08 09:37:12;;;;;;;2.58;0.70;;;23.10;37.70;;;;;;5021451;28;20037;-40
2022/04/08 09:39:58;;;;;;;3.08;0.88;;;23.10;38.00;;;;;;5019655;28;20482;-41
2022/04/08 09:42:40;;;;;;;2.28;0.52;;;23.10;38.60;;;;;;5015992;28;20037;-41
2022/04/08 09:45:06;;;;;;;2.53;0.75;;;23.10;39.00;;;;;;5019690;28;20128;-40
2022/04/08 09:47:32;;;;;;;2.58;0.77;;;23.10;39.50;;;;;;5023204;28;20100;-40
2022/04/08 09:49:57;;;;;;;2.97;0.60;;;23.10;39.40;;;;;;5023370;28;20025;-39
2022/04/08 09:52:28;;;;;;;2.78;0.60;;;23.10;39.50;;;;;;5021967;28;20017;-41
2022/04/08 09:54:58;;;;;;;3.67;0.77;;;23.10;39.50;;;;;;5023519;28;20025;-41
2022/04/08 09:57:24;;;;;;;1.70;0.63;;;23.20;39.60;;;;;;5022459;28;20029;-40
2022/04/08 09:59:58;;;;;;;2.00;0.40;;;23.20;39.60;;;;;;5021690;28;20022;-41
2022/04/08 10:02:26;;;;;;;2.30;0.60;;;23.20;39.70;;;;;;5023401;28;20029;-42
2022/04/08 10:04:54;;;;;;;2.88;0.68;;;23.20;39.60;;;;;;5027221;28;20029;-42
2022/04/08 10:07:20;;;;;;;1.85;0.50;;;23.20;39.60;;;;;;5027421;28;20103;-42
2022/04/08 10:10:20;;;;;;;1.77;0.47;;;23.30;39.70;;;;;;5026569;28;20104;-41
2022/04/08 10:13:03;;;;;;;3.17;0.85;;;23.30;39.50;;;;;;5025294;28;20060;-43
2022/04/08 10:15:40;;;;;;;3.33;0.68;;;23.30;39.30;;;;;;5025681;28;20143;-40
2022/04/08 10:18:06;;;;;;;3.10;0.70;;;23.30;39.20;;;;;;5025707;28;20109;-43
2022/04/08 10:20:37;;;;;;;4.07;0.68;;;23.30;39.50;;;;;;5027034;28;20104;-42
2022/04/08 10:23:11;;;;;;;4.00;1.05;;;23.30;39.50;;;;;;5022433;28;20572;-41
2022/04/08 10:25:37;;;;;;;2.58;0.63;;;23.30;39.40;;;;;;5018589;28;20030;-40
2022/04/08 10:28:03;;;;;;;2.90;0.93;;;23.30;39.00;;;;;;5024575;28;20055;-42
2022/04/08 10:30:29;;;;;;;2.45;0.60;;;23.30;38.60;;;;;;5026214;28;20733;-41
2022/04/08 10:33:06;;;;;;;3.80;0.85;;;23.40;38.50;;;;;;5026335;28;20034;-43
2022/04/08 10:35:32;;;;;;;1.48;0.43;;;23.40;38.90;;;;;;5026058;28;20028;-42
2022/04/08 10:38:08;;;;;;;1.67;0.50;;;23.40;39.00;;;;;;5026824;28;20385;-43
2022/04/08 10:40:38;;;;;;;2.85;0.75;;;23.40;39.10;;;;;;5026036;28;20055;-43
2022/04/08 10:43:05;;;;;;;2.45;0.75;;;23.40;39.00;;;;;;5025853;28;20132;-43
2022/04/08 10:45:31;;;;;;;2.97;0.85;;;23.40;39.20;;;;;;5026199;28;20049;-42
2022/04/08 10:48:01;;;;;;;3.88;0.70;;;23.40;38.80;;;;;;5025876;28;20029;-42
2022/04/08 10:50:30;;;;;;;2.38;0.70;;;23.40;38.70;;;;;;5026365;28;20481;-42
2022/04/08 10:53:12;;;;;;;3.03;0.90;;;23.50;38.50;;;;;;5025933;28;20033;-42
2022/04/08 10:56:04;;;;;;;2.83;0.85;;;23.50;38.50;;;;;;5021838;28;20053;-42
2022/04/08 10:58:43;;;;;;;3.55;0.95;;;23.50;38.60;;;;;;5023259;28;20034;-42
2022/04/08 11:01:25;;;;;;;2.90;0.80;;;23.50;39.80;;;;;;5024917;28;20107;-42
2022/04/08 11:03:55;;;;;;;3.80;0.70;;;23.50;39.70;;;;;;5020688;28;20037;-43
2022/04/08 11:06:24;;;;;;;3.72;1.00;;;23.50;39.90;;;;;;5017741;28;20030;-42
2022/04/08 11:08:50;;;;;;;2.03;0.70;;;23.50;40.50;;;;;;5024996;28;20410;-43
2022/04/08 11:11:16;;;;;;;2.28;0.80;;;23.50;40.70;;;;;;5025484;28;20029;-45
2022/04/08 11:13:42;;;;;;;2.63;1.15;;;23.50;40.70;;;;;;5024994;28;20091;-46
2022/04/08 11:16:08;;;;;;;7.13;4.57;;;23.50;40.70;;;;;;5023892;28;20037;-45
2022/04/08 11:18:34;;;;;;;8.15;7.18;;;23.60;40.80;;;;;;5025320;28;20508;-45
2022/04/08 11:21:00;;;;;;;10.68;9.57;;;23.60;42.50;;;;;;5023661;28;20037;-44
2022/04/08 11:23:27;;;;;;;12.63;10.50;;;23.60;42.50;;;;;;5023786;28;20505;-46
2022/04/08 11:25:53;;;;;;;9.65;8.65;;;23.70;45.20;;;;;;5022674;28;20025;-42
2022/04/08 11:28:22;;;;;;;8.95;7.65;;;23.70;43.80;;;;;;5023926;28;20030;-43
2022/04/08 11:30:57;;;;;;;8.90;6.93;;;23.80;43.00;;;;;;5025451;28;20032;-46
2022/04/08 11:33:23;;;;;;;9.23;6.15;;;23.80;42.50;;;;;;5025616;28;20048;-46
2022/04/08 11:35:58;;;;;;;6.43;4.82;;;23.80;42.10;;;;;;5025509;28;20573;-43
2022/04/08 11:38:27;;;;;;;7.22;4.53;;;23.80;41.80;;;;;;5025110;28;20026;-44
2022/04/08 11:40:53;;;;;;;4.57;3.35;;;23.90;41.70;;;;;;5022359;28;20025;-46
2022/04/08 11:43:20;;;;;;;6.32;4.25;;;23.80;41.50;;;;;;5020755;28;20033;-46
2022/04/08 11:45:48;;;;;;;6.18;4.03;;;23.80;41.50;;;;;;5024658;28;20120;-43
2022/04/08 11:48:17;;;;;;;5.80;3.45;;;23.80;41.20;;;;;;5017878;28;20025;-46
2022/04/08 11:50:43;;;;;;;4.65;3.17;;;23.80;41.10;;;;;;5023851;28;20029;-46
2022/04/08 11:53:18;;;;;;;7.13;3.42;;;23.80;41.00;;;;;;5023102;28;20558;-44
2022/04/08 11:55:59;;;;;;;5.13;3.03;;;23.80;40.90;;;;;;5013773;28;20037;-43
2022/04/08 11:58:27;;;;;;;4.60;2.50;;;23.80;41.20;;;;;;5025137;28;20028;-44
2022/04/08 12:00:53;;;;;;;4.65;2.47;;;23.80;41.30;;;;;;5020791;28;20042;-43
2022/04/08 12:03:39;;;;;;;5.13;3.08;;;23.80;41.40;;;;;;5020252;28;20033;-47
2022/04/08 12:06:04;;;;;;;4.43;2.70;;;23.90;41.40;;;;;;5024259;28;20028;-43
2022/04/08 12:08:30;;;;;;;5.22;2.83;;;23.80;41.20;;;;;;5025049;28;20390;-45
2022/04/08 12:10:59;;;;;;;4.88;2.60;;;23.80;41.10;;;;;;5021858;28;20060;-44
2022/04/08 12:13:29;;;;;;;4.55;2.67;;;23.80;41.30;;;;;;5020865;28;20028;-46
2022/04/08 12:15:57;;;;;;;5.38;2.30;;;23.80;41.10;;;;;;5022746;28;20083;-43
2022/04/08 12:18:28;;;;;;;5.20;2.40;;;23.80;41.10;;;;;;5024196;28;20076;-46
2022/04/08 12:20:59;;;;;;;3.45;1.85;;;23.80;41.90;;;;;;5024709;28;20100;-45
2022/04/08 12:23:26;;;;;;;3.65;1.80;;;23.80;41.10;;;;;;5024291;28;20056;-44
2022/04/08 12:25:54;;;;;;;3.63;1.92;;;23.80;41.20;;;;;;5024042;28;20030;-45
2022/04/08 12:28:31;;;;;;;5.95;2.10;;;23.80;41.20;;;;;;5024830;28;20029;-46
2022/04/08 12:30:57;;;;;;;6.45;2.00;;;23.80;41.10;;;;;;5024260;28;20457;-43
2022/04/08 12:33:23;;;;;;;3.75;2.10;;;23.80;41.10;;;;;;5023863;28;20033;-46
2022/04/08 12:35:48;;;;;;;3.90;1.70;;;23.80;41.00;;;;;;5024640;28;20052;-46
2022/04/08 12:38:22;;;;;;;4.40;2.47;;;23.80;40.80;;;;;;5024806;28;20508;-46
2022/04/08 12:40:48;;;;;;;3.75;1.75;;;23.80;41.00;;;;;;5024049;28;20033;-46
2022/04/08 12:43:14;;;;;;;3.17;1.33;;;23.80;40.90;;;;;;5023585;28;20029;-46
2022/04/08 12:45:40;;;;;;;3.30;1.80;;;23.80;40.90;;;;;;5023800;28;20073;-42